Time,TemperatureF,DewpointF,PressureIn,WindDirection,WindDirectionDegrees,WindSpeedMPH,WindSpeedGustMPH,Humidity,HourlyPrecipIn,Conditions,Clouds,dailyrainin,SoftwareType,DateUTC
2013-01-25 00:01:00,26.8,22.0,30.11,NNE,23,0.0,3.1,82,0.00,,,0.00,WUHU216HW,2013-01-25 07:01:00,
2013-01-25 00:06:00,27.0,21.9,30.11,North,0,1.1,1.8,81,0.00,,,0.00,WUHU216HW,2013-01-25 07:06:00,
2013-01-25 00:11:00,27.0,21.9,30.11,NE,45,3.4,3.4,81,0.00,,,0.00,WUHU216HW,2013-01-25 07:11:00,
2013-01-25 00:16:00,26.8,21.7,30.11,SW,225,0.0,3.4,81,0.00,,,0.00,WUHU216HW,2013-01-25 07:16:00,
2013-01-25 00:21:00,26.6,21.5,30.11,ESE,113,2.7,3.4,81,0.00,,,0.00,WUHU216HW,2013-01-25 07:21:00,
2013-01-25 00:26:00,26.6,21.5,30.11,ENE,68,2.0,2.7,81,0.00,,,0.00,WUHU216HW,2013-01-25 07:26:00,
2013-01-25 00:32:00,26.8,21.7,30.11,ENE,68,0.0,2.0,81,0.00,,,0.00,WUHU216HW,2013-01-25 07:32:00,
2013-01-25 00:37:00,27.0,21.9,30.11,ENE,68,0.4,2.0,81,0.00,,,0.00,WUHU216HW,2013-01-25 07:37:00,
2013-01-25 00:42:00,27.2,21.8,30.11,NE,45,0.7,1.1,80,0.00,,,0.00,WUHU216HW,2013-01-25 07:42:00,
2013-01-25 00:47:00,27.4,22.2,30.11,ENE,68,1.1,1.8,81,0.00,,,0.00,WUHU216HW,2013-01-25 07:47:00,
2013-01-25 00:52:00,27.7,22.3,30.11,North,0,0.4,1.8,80,0.00,,,0.00,WUHU216HW,2013-01-25 07:52:00,
2013-01-25 00:57:00,27.7,22.1,30.11,West,270,2.2,2.2,79,0.00,,,0.00,WUHU216HW,2013-01-25 07:57:00,
2013-01-25 01:02:00,27.2,21.8,30.11,North,0,1.8,2.9,80,0.00,,,0.00,WUHU216HW,2013-01-25 08:02:00,
2013-01-25 01:07:00,26.6,21.2,30.11,East,90,1.8,2.9,80,0.00,,,0.00,WUHU216HW,2013-01-25 08:07:00,
2013-01-25 01:12:00,27.4,22.5,30.11,SE,135,2.7,4.0,82,0.00,,,0.00,WUHU216HW,2013-01-25 08:12:00,
2013-01-25 01:17:00,28.6,23.8,30.11,WSW,248,0.7,4.0,82,0.00,,,0.00,WUHU216HW,2013-01-25 08:17:00,
2013-01-25 01:22:00,28.8,23.1,30.11,NW,315,2.0,2.2,79,0.00,,,0.00,WUHU216HW,2013-01-25 08:22:00,
2013-01-25 01:28:00,28.1,22.1,30.11,NW,315,4.0,4.0,78,0.00,,,0.00,WUHU216HW,2013-01-25 08:28:00,
2013-01-25 01:33:00,27.4,21.3,30.11,ENE,68,0.4,4.0,78,0.00,,,0.00,WUHU216HW,2013-01-25 08:33:00,
2013-01-25 01:38:00,27.0,21.0,30.11,ENE,68,2.5,2.5,78,0.00,,,0.00,WUHU216HW,2013-01-25 08:38:00,
2013-01-25 01:43:00,27.5,22.1,30.11,East,90,2.0,3.4,80,0.00,,,0.00,WUHU216HW,2013-01-25 08:43:00,
2013-01-25 01:48:00,28.4,23.0,30.11,East,90,1.8,3.4,80,0.00,,,0.00,WUHU216HW,2013-01-25 08:48:00,
2013-01-25 01:53:00,29.0,23.3,30.11,East,90,0.9,1.8,79,0.00,,,0.00,WUHU216HW,2013-01-25 08:53:00,
2013-01-25 01:58:00,29.2,23.1,30.11,SE,135,1.1,1.1,78,0.00,,,0.00,WUHU216HW,2013-01-25 08:58:00,
2013-01-25 02:03:00,29.2,23.1,30.11,SE,135,0.0,1.1,78,0.00,,,0.00,WUHU216HW,2013-01-25 09:03:00,
2013-01-25 02:09:00,29.0,22.7,30.11,East,90,0.4,2.2,77,0.00,,,0.00,WUHU216HW,2013-01-25 09:09:00,
2013-01-25 02:13:00,29.0,22.7,30.11,East,90,1.1,2.5,77,0.00,,,0.00,WUHU216HW,2013-01-25 09:13:00,
2013-01-25 02:19:00,29.0,22.7,30.11,ENE,68,1.8,3.4,77,0.00,,,0.00,WUHU216HW,2013-01-25 09:19:00,
2013-01-25 02:24:00,29.2,23.1,30.11,SSE,158,3.6,4.9,78,0.00,,,0.00,WUHU216HW,2013-01-25 09:24:00,
2013-01-25 02:30:00,29.5,23.1,30.11,SE,135,2.7,4.9,77,0.00,,,0.00,WUHU216HW,2013-01-25 09:30:00,
2013-01-25 02:35:00,29.9,23.5,30.12,SSW,203,4.7,4.7,77,0.00,,,0.00,WUHU216HW,2013-01-25 09:35:00,
2013-01-25 02:40:00,29.9,23.9,30.12,West,270,1.3,4.7,78,0.00,,,0.00,WUHU216HW,2013-01-25 09:40:00,
2013-01-25 02:45:00,29.9,23.2,30.11,SSE,158,5.6,5.6,76,0.00,,,0.00,WUHU216HW,2013-01-25 09:45:00,
2013-01-25 02:50:00,30.4,24.4,30.11,SE,135,1.8,5.6,78,0.00,,,0.00,WUHU216HW,2013-01-25 09:50:00,
2013-01-25 02:55:00,31.3,25.3,30.11,SE,135,4.0,4.7,78,0.00,,,0.00,WUHU216HW,2013-01-25 09:55:00,
2013-01-25 03:00:00,31.9,25.5,30.11,South,180,4.7,4.7,77,0.00,,,0.00,WUHU216HW,2013-01-25 10:00:00,
2013-01-25 03:05:00,31.9,25.2,30.11,WSW,248,2.9,4.7,76,0.00,,,0.00,WUHU216HW,2013-01-25 10:05:00,
2013-01-25 03:10:00,31.7,24.7,30.12,WSW,248,0.0,2.9,75,0.00,,,0.00,WUHU216HW,2013-01-25 10:10:00,
2013-01-25 03:16:00,31.7,24.7,30.12,SSW,203,2.5,4.7,75,0.00,,,0.00,WUHU216HW,2013-01-25 10:16:00,
2013-01-25 03:21:00,32.0,25.0,30.12,East,90,4.5,4.7,75,0.00,,,0.00,WUHU216HW,2013-01-25 10:21:00,
2013-01-25 03:26:00,32.8,25.7,30.12,WSW,248,0.9,4.5,75,0.00,,,0.00,WUHU216HW,2013-01-25 10:26:00,
2013-01-25 03:31:00,33.1,25.7,30.11,ESE,113,1.8,1.8,74,0.00,,,0.00,WUHU216HW,2013-01-25 10:31:00,
2013-01-25 03:36:00,33.3,25.5,30.11,East,90,1.8,2.5,73,0.00,,,0.00,WUHU216HW,2013-01-25 10:36:00,
2013-01-25 03:41:00,33.5,25.7,30.11,ESE,113,3.4,3.4,73,0.00,,,0.00,WUHU216HW,2013-01-25 10:41:00,
2013-01-25 03:46:00,33.8,26.0,30.11,SSE,158,3.4,4.0,73,0.00,,,0.00,WUHU216HW,2013-01-25 10:46:00,
2013-01-25 03:51:00,34.2,26.4,30.12,SSE,158,3.4,4.7,73,0.00,,,0.00,WUHU216HW,2013-01-25 10:51:00,
2013-01-25 03:57:00,34.2,26.0,30.12,SE,135,2.5,4.7,72,0.00,,,0.00,WUHU216HW,2013-01-25 10:57:00,
2013-01-25 04:02:00,34.2,26.0,30.11,ESE,113,0.0,2.7,72,0.00,,,0.00,WUHU216HW,2013-01-25 11:02:00,
2013-01-25 04:07:00,34.2,25.8,30.11,North,0,0.0,2.0,71,0.00,,,0.00,WUHU216HW,2013-01-25 11:07:00,
2013-01-25 04:12:00,34.4,26.2,30.11,SE,135,3.8,3.8,72,0.00,,,0.00,WUHU216HW,2013-01-25 11:12:00,
2013-01-25 04:17:00,34.9,26.5,30.11,ESE,113,4.7,6.7,71,0.00,,,0.00,WUHU216HW,2013-01-25 11:17:00,
2013-01-25 04:22:00,35.5,26.6,30.10,East,90,6.9,6.9,70,0.00,,,0.00,WUHU216HW,2013-01-25 11:22:00,
2013-01-25 04:27:00,36.0,26.8,30.10,SE,135,5.1,8.5,69,0.00,,,0.00,WUHU216HW,2013-01-25 11:27:00,
2013-01-25 04:32:00,35.8,26.3,30.10,SE,135,7.2,8.5,68,0.00,,,0.00,WUHU216HW,2013-01-25 11:32:00,
2013-01-25 04:37:00,35.8,26.3,30.09,SE,135,8.3,8.7,68,0.00,,,0.00,WUHU216HW,2013-01-25 11:37:00,
2013-01-25 04:42:00,36.0,26.5,30.10,SE,135,4.0,8.7,68,0.00,,,0.00,WUHU216HW,2013-01-25 11:42:00,
2013-01-25 04:47:00,36.0,26.5,30.10,ESE,113,4.7,8.3,68,0.00,,,0.00,WUHU216HW,2013-01-25 11:47:00,
2013-01-25 04:52:00,36.0,26.5,30.11,SE,135,4.9,4.9,68,0.00,,,0.00,WUHU216HW,2013-01-25 11:52:00,
2013-01-25 04:57:00,36.4,26.5,30.11,ESE,113,4.0,6.0,67,0.00,,,0.00,WUHU216HW,2013-01-25 11:57:00,
2013-01-25 05:02:00,36.4,26.5,30.11,SE,135,5.6,7.2,67,0.00,,,0.00,WUHU216HW,2013-01-25 12:02:00,
2013-01-25 05:08:00,36.4,26.5,30.11,SE,135,4.7,7.2,67,0.00,,,0.00,WUHU216HW,2013-01-25 12:08:00,
2013-01-25 05:13:00,36.4,26.5,30.11,SE,135,5.4,6.5,67,0.00,,,0.00,WUHU216HW,2013-01-25 12:13:00,
2013-01-25 05:18:00,36.4,26.5,30.11,SE,135,5.1,6.7,67,0.00,,,0.00,WUHU216HW,2013-01-25 12:18:00,
2013-01-25 05:24:00,36.2,26.3,30.11,ESE,113,3.4,6.7,67,0.00,,,0.00,WUHU216HW,2013-01-25 12:24:00,
2013-01-25 05:29:00,36.2,26.3,30.11,ESE,113,6.5,6.5,67,0.00,,,0.00,WUHU216HW,2013-01-25 12:29:00,
2013-01-25 05:34:00,36.4,26.5,30.11,SE,135,3.8,6.5,67,0.00,,,0.00,WUHU216HW,2013-01-25 12:34:00,
2013-01-25 05:40:00,36.4,26.5,30.10,SSW,203,2.5,6.3,67,0.00,,,0.00,WUHU216HW,2013-01-25 12:40:00,
2013-01-25 05:45:00,36.2,26.3,30.10,SE,135,2.7,4.7,67,0.00,,,0.00,WUHU216HW,2013-01-25 12:45:00,
2013-01-25 05:50:00,35.8,25.9,30.10,ESE,113,1.8,4.7,67,0.00,,,0.00,WUHU216HW,2013-01-25 12:50:00,
2013-01-25 05:55:00,35.5,25.9,30.10,ESE,113,1.8,3.6,68,0.00,,,0.00,WUHU216HW,2013-01-25 12:55:00,
2013-01-25 06:00:00,35.6,26.1,30.10,SE,135,2.2,3.6,68,0.00,,,0.00,WUHU216HW,2013-01-25 13:00:00,
2013-01-25 06:05:00,36.0,26.1,30.11,SE,135,3.4,4.7,67,0.00,,,0.00,WUHU216HW,2013-01-25 13:05:00,
2013-01-25 06:10:00,36.4,26.5,30.11,ESE,113,1.8,4.7,67,0.00,,,0.00,WUHU216HW,2013-01-25 13:10:00,
2013-01-25 06:15:00,36.5,26.3,30.11,SSW,203,1.1,5.8,66,0.00,,,0.00,WUHU216HW,2013-01-25 13:15:00,
2013-01-25 06:21:00,36.7,26.5,30.11,South,180,0.0,5.8,66,0.00,,,0.00,WUHU216HW,2013-01-25 13:21:00,
2013-01-25 06:26:00,36.7,26.5,30.11,South,180,3.4,5.1,66,0.00,,,0.00,WUHU216HW,2013-01-25 13:26:00,
2013-01-25 06:31:00,36.5,26.3,30.10,SSE,158,2.7,5.1,66,0.00,,,0.00,WUHU216HW,2013-01-25 13:31:00,
2013-01-25 06:36:00,36.4,26.5,30.10,SE,135,2.7,4.9,67,0.00,,,0.00,WUHU216HW,2013-01-25 13:36:00,
2013-01-25 06:41:00,36.0,26.1,30.10,SE,135,4.9,6.3,67,0.00,,,0.00,WUHU216HW,2013-01-25 13:41:00,
2013-01-25 06:47:00,36.2,26.3,30.10,SSE,158,1.8,6.3,67,0.00,,,0.00,WUHU216HW,2013-01-25 13:47:00,
2013-01-25 06:52:00,36.0,26.1,30.10,SE,135,4.5,5.8,67,0.00,,,0.00,WUHU216HW,2013-01-25 13:52:00,
2013-01-25 06:57:00,36.4,26.5,30.10,South,180,2.7,6.7,67,0.00,,,0.00,WUHU216HW,2013-01-25 13:57:00,
2013-01-25 07:02:00,36.4,26.5,30.11,SE,135,2.0,6.7,67,0.00,,,0.00,WUHU216HW,2013-01-25 14:02:00,
2013-01-25 07:07:00,36.5,26.3,30.11,ESE,113,6.5,6.5,66,0.00,,,0.00,WUHU216HW,2013-01-25 14:07:00,
2013-01-25 07:12:00,37.1,26.0,30.11,SE,135,5.8,6.9,64,0.00,,,0.00,WUHU216HW,2013-01-25 14:12:00,
2013-01-25 07:18:00,37.1,26.4,30.11,SE,135,5.4,6.9,65,0.00,,,0.00,WUHU216HW,2013-01-25 14:18:00,
2013-01-25 07:23:00,36.9,26.6,30.11,SSE,158,4.7,6.9,66,0.00,,,0.00,WUHU216HW,2013-01-25 14:23:00,
2013-01-25 07:28:00,36.5,26.7,30.10,SE,135,3.8,6.9,67,0.00,,,0.00,WUHU216HW,2013-01-25 14:28:00,
2013-01-25 07:33:00,36.4,26.5,30.10,SSE,158,6.9,6.9,67,0.00,,,0.00,WUHU216HW,2013-01-25 14:33:00,
2013-01-25 07:38:00,36.4,26.5,30.10,SSE,158,4.7,6.9,67,0.00,,,0.00,WUHU216HW,2013-01-25 14:38:00,
2013-01-25 07:43:00,36.4,26.5,30.10,SE,135,4.3,6.3,67,0.00,,,0.00,WUHU216HW,2013-01-25 14:43:00,
2013-01-25 07:48:00,36.2,26.3,30.10,SE,135,5.4,11.4,67,0.00,,,0.00,WUHU216HW,2013-01-25 14:48:00,
2013-01-25 07:53:00,36.4,26.8,30.10,SE,135,6.3,6.7,68,0.00,,,0.00,WUHU216HW,2013-01-25 14:53:00,
2013-01-25 07:59:00,36.4,26.8,30.10,SSE,158,5.1,6.7,68,0.00,,,0.00,WUHU216HW,2013-01-25 14:59:00,
2013-01-25 08:04:00,36.4,26.8,30.10,SE,135,6.0,6.5,68,0.00,,,0.00,WUHU216HW,2013-01-25 15:04:00,
2013-01-25 08:09:00,36.4,26.8,30.10,SSE,158,3.4,6.5,68,0.00,,,0.00,WUHU216HW,2013-01-25 15:09:00,
2013-01-25 08:14:00,36.0,26.5,30.10,SSE,158,2.2,3.4,68,0.00,,,0.00,WUHU216HW,2013-01-25 15:14:00,
2013-01-25 08:19:00,35.6,26.5,30.10,ESE,113,1.8,2.9,69,0.00,,,0.00,WUHU216HW,2013-01-25 15:19:00,
2013-01-25 08:25:00,35.5,26.3,30.10,ESE,113,2.0,2.5,69,0.00,,,0.00,WUHU216HW,2013-01-25 15:25:00,
2013-01-25 08:30:00,35.1,25.9,30.10,SE,135,1.6,2.0,69,0.00,,,0.00,WUHU216HW,2013-01-25 15:30:00,
2013-01-25 08:35:00,35.1,26.3,30.09,ESE,113,0.9,1.6,70,0.00,,,0.00,WUHU216HW,2013-01-25 15:35:00,
2013-01-25 08:40:00,35.1,26.3,30.09,ESE,113,0.0,1.3,70,0.00,,,0.00,WUHU216HW,2013-01-25 15:40:00,
2013-01-25 08:45:00,35.3,26.5,30.09,NNE,23,0.9,1.3,70,0.00,,,0.00,WUHU216HW,2013-01-25 15:45:00,
2013-01-25 08:50:00,35.6,26.8,30.10,East,90,1.3,1.6,70,0.00,,,0.00,WUHU216HW,2013-01-25 15:50:00,
2013-01-25 08:55:00,35.8,27.0,30.09,ENE,68,1.1,1.8,70,0.00,,,0.00,WUHU216HW,2013-01-25 15:55:00,
2013-01-25 09:00:00,36.4,27.5,30.10,ESE,113,1.1,1.8,70,0.00,,,0.00,WUHU216HW,2013-01-25 16:00:00,
2013-01-25 09:05:00,36.9,28.1,30.10,ESE,113,0.0,1.8,70,0.00,,,0.00,WUHU216HW,2013-01-25 16:05:00,
2013-01-25 09:10:00,37.4,28.3,30.10,ENE,68,0.0,1.3,69,0.00,,,0.00,WUHU216HW,2013-01-25 16:10:00,
2013-01-25 09:16:00,37.8,28.2,30.10,ENE,68,1.6,1.6,68,0.00,,,0.00,WUHU216HW,2013-01-25 16:16:00,
2013-01-25 09:21:00,38.2,28.5,30.10,East,90,1.3,1.6,68,0.00,,,0.00,WUHU216HW,2013-01-25 16:21:00,
2013-01-25 09:26:00,38.7,28.6,30.10,East,90,0.9,1.8,67,0.00,,,0.00,WUHU216HW,2013-01-25 16:26:00,
2013-01-25 09:31:00,39.2,28.7,30.10,ESE,113,4.0,4.3,66,0.00,,,0.00,WUHU216HW,2013-01-25 16:31:00,
2013-01-25 09:36:00,39.6,28.7,30.10,East,90,2.0,4.3,65,0.00,,,0.00,WUHU216HW,2013-01-25 16:36:00,
2013-01-25 09:41:00,40.1,29.6,30.10,East,90,0.4,3.4,66,0.00,,,0.00,WUHU216HW,2013-01-25 16:41:00,
2013-01-25 09:46:00,40.7,29.8,30.10,ESE,113,1.1,3.4,65,0.00,,,0.00,WUHU216HW,2013-01-25 16:46:00,
2013-01-25 09:51:00,41.0,29.4,30.10,SE,135,3.6,3.6,63,0.00,,,0.00,WUHU216HW,2013-01-25 16:51:00,
2013-01-25 09:56:00,41.2,29.5,30.10,ESE,113,2.5,5.6,63,0.00,,,0.00,WUHU216HW,2013-01-25 16:56:00,
2013-01-25 10:01:00,41.4,29.7,30.10,SW,225,1.1,5.6,63,0.00,,,0.00,WUHU216HW,2013-01-25 17:01:00,
2013-01-25 10:06:00,41.4,29.3,30.11,West,270,2.2,4.0,62,0.00,,,0.00,WUHU216HW,2013-01-25 17:06:00,
2013-01-25 10:11:00,41.6,29.9,30.11,WNW,293,0.9,2.5,63,0.00,,,0.00,WUHU216HW,2013-01-25 17:11:00,
2013-01-25 10:16:00,41.4,29.7,30.11,West,270,1.1,2.5,63,0.00,,,0.00,WUHU216HW,2013-01-25 17:16:00,
2013-01-25 10:21:00,41.4,29.7,30.11,ENE,68,0.4,1.8,63,0.00,,,0.00,WUHU216HW,2013-01-25 17:21:00,
2013-01-25 10:27:00,41.4,30.2,30.11,SW,225,1.8,1.8,64,0.00,,,0.00,WUHU216HW,2013-01-25 17:27:00,
2013-01-25 10:32:00,41.2,30.0,30.11,East,90,1.3,1.8,64,0.00,,,0.00,WUHU216HW,2013-01-25 17:32:00,
2013-01-25 10:37:00,41.4,29.7,30.11,ESE,113,4.3,4.3,63,0.00,,,0.00,WUHU216HW,2013-01-25 17:37:00,
2013-01-25 10:42:00,41.6,29.9,30.10,SE,135,1.6,4.3,63,0.00,,,0.00,WUHU216HW,2013-01-25 17:42:00,
2013-01-25 10:47:00,41.9,30.3,30.10,SE,135,3.4,4.7,63,0.00,,,0.00,WUHU216HW,2013-01-25 17:47:00,
2013-01-25 10:52:00,41.9,30.3,30.10,South,180,1.8,4.7,63,0.00,,,0.00,WUHU216HW,2013-01-25 17:52:00,
2013-01-25 10:57:00,42.1,30.4,30.11,SSE,158,2.5,3.1,63,0.00,,,0.00,WUHU216HW,2013-01-25 17:57:00,
2013-01-25 11:03:00,42.5,30.7,30.10,SE,135,4.3,4.3,63,0.00,,,0.00,WUHU216HW,2013-01-25 18:03:00,
2013-01-25 11:08:00,42.7,30.5,30.10,SSE,158,2.7,5.4,62,0.00,,,0.00,WUHU216HW,2013-01-25 18:08:00,
2013-01-25 11:13:00,42.8,30.2,30.10,SE,135,3.4,5.4,61,0.00,,,0.00,WUHU216HW,2013-01-25 18:13:00,
2013-01-25 11:18:00,42.8,29.9,30.09,SSE,158,3.4,4.0,60,0.00,,,0.00,WUHU216HW,2013-01-25 18:18:00,
2013-01-25 11:23:00,42.8,30.7,30.09,SE,135,2.9,4.0,62,0.00,,,0.00,WUHU216HW,2013-01-25 18:23:00,
2013-01-25 11:28:00,42.8,30.2,30.09,SE,135,2.5,3.4,61,0.00,,,0.00,WUHU216HW,2013-01-25 18:28:00,
2013-01-25 11:33:00,43.0,30.9,30.09,SE,135,2.9,3.4,62,0.00,,,0.00,WUHU216HW,2013-01-25 18:33:00,
2013-01-25 11:38:00,43.2,31.1,30.09,SE,135,1.8,3.4,62,0.00,,,0.00,WUHU216HW,2013-01-25 18:38:00,
2013-01-25 11:44:00,43.4,31.2,30.08,SE,135,1.6,2.9,62,0.00,,,0.00,WUHU216HW,2013-01-25 18:44:00,
2013-01-25 11:49:00,43.6,31.0,30.08,SE,135,1.8,2.2,61,0.00,,,0.00,WUHU216HW,2013-01-25 18:49:00,
2013-01-25 11:54:00,43.7,31.1,30.08,SE,135,1.1,2.2,61,0.00,,,0.00,WUHU216HW,2013-01-25 18:54:00,
2013-01-25 11:59:00,43.7,30.8,30.08,SE,135,1.6,2.7,60,0.00,,,0.00,WUHU216HW,2013-01-25 18:59:00,
2013-01-25 12:04:00,43.7,30.8,30.08,SE,135,2.5,2.7,60,0.00,,,0.00,WUHU216HW,2013-01-25 19:04:00,
2013-01-25 12:09:00,43.9,31.0,30.08,ESE,113,1.3,2.5,60,0.00,,,0.00,WUHU216HW,2013-01-25 19:09:00,
2013-01-25 12:14:00,44.1,31.1,30.07,ESE,113,3.8,3.8,60,0.00,,,0.00,WUHU216HW,2013-01-25 19:14:00,
2013-01-25 12:19:00,43.9,30.5,30.07,SE,135,4.9,6.5,59,0.00,,,0.00,WUHU216HW,2013-01-25 19:19:00,
2013-01-25 12:24:00,43.7,30.8,30.07,SSE,158,3.1,6.5,60,0.00,,,0.00,WUHU216HW,2013-01-25 19:24:00,
2013-01-25 12:29:00,43.6,30.2,30.06,SE,135,1.3,4.7,59,0.00,,,0.00,WUHU216HW,2013-01-25 19:29:00,
2013-01-25 12:34:00,43.6,30.2,30.06,ESE,113,3.4,4.7,59,0.00,,,0.00,WUHU216HW,2013-01-25 19:34:00,
2013-01-25 12:40:00,43.6,30.2,30.06,SSE,158,4.7,4.7,59,0.00,,,0.00,WUHU216HW,2013-01-25 19:40:00,
2013-01-25 12:45:00,43.6,30.2,30.06,East,90,4.5,4.7,59,0.00,,,0.00,WUHU216HW,2013-01-25 19:45:00,
2013-01-25 12:50:00,43.7,30.3,30.06,ESE,113,3.6,4.7,59,0.00,,,0.00,WUHU216HW,2013-01-25 19:50:00,
2013-01-25 12:55:00,43.9,30.5,30.06,SE,135,2.9,3.6,59,0.00,,,0.00,WUHU216HW,2013-01-25 19:55:00,
2013-01-25 13:00:00,44.3,30.9,30.05,SE,135,1.8,3.6,59,0.00,,,0.00,WUHU216HW,2013-01-25 20:00:00,
2013-01-25 13:05:00,44.3,30.9,30.05,ESE,113,4.0,4.0,59,0.00,,,0.00,WUHU216HW,2013-01-25 20:05:00,
2013-01-25 13:10:00,44.3,30.9,30.05,SE,135,1.6,4.0,59,0.00,,,0.00,WUHU216HW,2013-01-25 20:10:00,
2013-01-25 13:16:00,44.5,31.1,30.04,SE,135,2.7,3.1,59,0.00,,,0.00,WUHU216HW,2013-01-25 20:16:00,
2013-01-25 13:21:00,44.5,31.1,30.04,SSE,158,1.8,3.1,59,0.00,,,0.00,WUHU216HW,2013-01-25 20:21:00,
2013-01-25 13:26:00,44.1,31.1,30.04,SE,135,2.5,3.4,60,0.00,,,0.00,WUHU216HW,2013-01-25 20:26:00,
2013-01-25 13:32:00,43.9,31.0,30.04,SSE,158,2.9,3.4,60,0.00,,,0.00,WUHU216HW,2013-01-25 20:32:00,
2013-01-25 13:37:00,43.7,31.1,30.03,SE,135,3.4,3.6,61,0.00,,,0.00,WUHU216HW,2013-01-25 20:37:00,
2013-01-25 13:42:00,43.7,31.1,30.03,SSE,158,1.8,3.6,61,0.00,,,0.00,WUHU216HW,2013-01-25 20:42:00,
2013-01-25 13:47:00,43.7,31.1,30.03,SSW,203,1.8,3.1,61,0.00,,,0.00,WUHU216HW,2013-01-25 20:47:00,
2013-01-25 13:52:00,43.9,31.3,30.03,SSW,203,0.0,2.2,61,0.00,,,0.00,WUHU216HW,2013-01-25 20:52:00,
2013-01-25 13:57:00,44.3,31.7,30.03,ESE,113,0.0,1.1,61,0.00,,,0.00,WUHU216HW,2013-01-25 20:57:00,
2013-01-25 14:02:00,45.0,32.4,30.02,ESE,113,0.0,1.1,61,0.00,,,0.00,WUHU216HW,2013-01-25 21:02:00,
2013-01-25 14:07:00,45.7,32.7,30.02,ESE,113,0.0,0.0,60,0.00,,,0.00,WUHU216HW,2013-01-25 21:07:00,
2013-01-25 14:12:00,45.9,32.4,30.02,ESE,113,0.0,0.0,59,0.00,,,0.00,WUHU216HW,2013-01-25 21:12:00,
2013-01-25 14:17:00,46.3,32.7,30.01,ESE,113,0.0,0.0,59,0.00,,,0.00,WUHU216HW,2013-01-25 21:17:00,
2013-01-25 14:22:00,46.4,32.9,30.01,ESE,113,0.0,0.0,59,0.00,,,0.00,WUHU216HW,2013-01-25 21:22:00,
2013-01-25 14:27:00,46.6,32.6,30.01,North,0,0.9,1.1,58,0.00,,,0.00,WUHU216HW,2013-01-25 21:27:00,
2013-01-25 14:32:00,46.6,32.1,30.01,North,0,0.4,1.1,57,0.00,,,0.00,WUHU216HW,2013-01-25 21:32:00,
2013-01-25 14:37:00,46.6,32.1,30.01,North,0,1.1,1.1,57,0.00,,,0.00,WUHU216HW,2013-01-25 21:37:00,
2013-01-25 14:42:00,46.3,31.3,30.01,North,0,1.8,1.8,56,0.00,,,0.00,WUHU216HW,2013-01-25 21:42:00,
2013-01-25 14:47:00,45.0,30.7,30.01,North,0,1.3,1.8,57,0.00,,,0.00,WUHU216HW,2013-01-25 21:47:00,
2013-01-25 14:52:00,44.5,30.6,30.01,NW,315,2.9,3.4,58,0.00,,,0.00,WUHU216HW,2013-01-25 21:52:00,
2013-01-25 14:58:00,43.7,30.8,30.01,NW,315,0.9,3.4,60,0.00,,,0.00,WUHU216HW,2013-01-25 21:58:00,
2013-01-25 15:03:00,43.2,30.6,30.01,NNW,338,2.0,2.7,61,0.00,,,0.00,WUHU216HW,2013-01-25 22:03:00,
2013-01-25 15:08:00,43.0,30.4,30.01,NNW,338,1.3,2.5,61,0.00,,,0.00,WUHU216HW,2013-01-25 22:08:00,
2013-01-25 15:13:00,42.8,30.7,30.01,North,0,1.6,2.5,62,0.00,,,0.00,WUHU216HW,2013-01-25 22:13:00,
2013-01-25 15:18:00,42.7,30.5,30.01,North,0,1.1,1.8,62,0.00,,,0.00,WUHU216HW,2013-01-25 22:18:00,
2013-01-25 15:23:00,42.5,30.7,30.01,North,0,1.1,1.8,63,0.00,,,0.00,WUHU216HW,2013-01-25 22:23:00,
2013-01-25 15:28:00,42.3,30.6,30.01,North,0,1.1,1.3,63,0.00,,,0.00,WUHU216HW,2013-01-25 22:28:00,
2013-01-25 15:33:00,42.3,30.2,30.01,North,0,0.7,1.1,62,0.00,,,0.00,WUHU216HW,2013-01-25 22:33:00,
2013-01-25 15:38:00,42.8,30.7,30.01,North,0,0.0,1.1,62,0.00,,,0.00,WUHU216HW,2013-01-25 22:38:00,
2013-01-25 15:44:00,43.0,31.2,30.01,NNW,338,1.3,1.3,63,0.00,,,0.00,WUHU216HW,2013-01-25 22:44:00,
2013-01-25 15:49:00,43.4,31.2,30.01,NNW,338,0.4,1.3,62,0.00,,,0.00,WUHU216HW,2013-01-25 22:49:00,
2013-01-25 15:54:00,43.6,31.0,30.00,NNW,338,0.0,1.3,61,0.00,,,0.00,WUHU216HW,2013-01-25 22:54:00,
2013-01-25 15:59:00,43.6,31.0,30.00,NNW,338,1.1,1.1,61,0.00,,,0.00,WUHU216HW,2013-01-25 22:59:00,
2013-01-25 16:04:00,43.6,31.4,30.00,NNW,338,0.2,1.1,62,0.00,,,0.00,WUHU216HW,2013-01-25 23:04:00,
2013-01-25 16:09:00,43.6,31.4,30.00,NNW,338,0.4,1.1,62,0.00,,,0.00,WUHU216HW,2013-01-25 23:09:00,
2013-01-25 16:14:00,43.7,31.6,30.00,NNW,338,0.4,0.9,62,0.00,,,0.00,WUHU216HW,2013-01-25 23:14:00,
2013-01-25 16:19:00,44.1,32.0,30.00,NNW,338,0.0,0.4,62,0.00,,,0.00,WUHU216HW,2013-01-25 23:19:00,
2013-01-25 16:24:00,44.1,31.5,30.00,NW,315,0.0,0.0,61,0.00,,,0.00,WUHU216HW,2013-01-25 23:24:00,
2013-01-25 16:29:00,43.9,31.3,30.00,West,270,0.0,0.4,61,0.00,,,0.00,WUHU216HW,2013-01-25 23:29:00,
2013-01-25 16:34:00,43.4,31.2,30.00,ENE,68,1.1,1.6,62,0.00,,,0.00,WUHU216HW,2013-01-25 23:34:00,
2013-01-25 16:39:00,42.8,30.7,30.00,East,90,1.8,1.8,62,0.00,,,0.00,WUHU216HW,2013-01-25 23:39:00,
2013-01-25 16:44:00,42.5,30.3,30.00,East,90,0.2,1.8,62,0.00,,,0.00,WUHU216HW,2013-01-25 23:44:00,
2013-01-25 16:49:00,42.1,30.0,30.00,WSW,248,0.9,1.8,62,0.00,,,0.00,WUHU216HW,2013-01-25 23:49:00,
2013-01-25 16:55:00,41.4,29.7,30.00,North,0,1.1,1.6,63,0.00,,,0.00,WUHU216HW,2013-01-25 23:55:00,
2013-01-25 17:00:00,40.7,29.8,30.00,NNE,23,0.0,1.6,65,0.00,,,0.00,WUHU216HW,2013-01-26 00:00:00,
2013-01-25 17:05:00,40.1,29.3,30.00,NNE,23,0.4,1.6,65,0.00,,,0.00,WUHU216HW,2013-01-26 00:05:00,
2013-01-25 17:10:00,40.0,29.1,29.99,NNE,23,0.0,0.9,65,0.00,,,0.00,WUHU216HW,2013-01-26 00:10:00,
2013-01-25 17:15:00,40.0,29.1,29.99,NNE,23,0.0,0.7,65,0.00,,,0.00,WUHU216HW,2013-01-26 00:15:00,
2013-01-25 17:20:00,40.0,29.4,29.99,NNE,23,0.0,0.0,66,0.00,,,0.00,WUHU216HW,2013-01-26 00:20:00,
2013-01-25 17:25:00,39.8,28.9,29.99,ENE,68,2.5,2.7,65,0.00,,,0.00,WUHU216HW,2013-01-26 00:25:00,
2013-01-25 17:31:00,39.2,28.7,29.99,ESE,113,1.6,2.7,66,0.00,,,0.00,WUHU216HW,2013-01-26 00:31:00,
2013-01-25 17:36:00,39.1,28.5,29.99,SE,135,0.0,1.8,66,0.00,,,0.00,WUHU216HW,2013-01-26 00:36:00,
2013-01-25 17:41:00,39.1,28.5,29.99,SE,135,0.0,1.1,66,0.00,,,0.00,WUHU216HW,2013-01-26 00:41:00,
2013-01-25 17:47:00,38.7,28.3,29.99,SE,135,0.0,0.0,66,0.00,,,0.00,WUHU216HW,2013-01-26 00:47:00,
2013-01-25 17:53:00,38.5,28.4,29.99,SW,225,0.0,0.9,67,0.00,,,0.00,WUHU216HW,2013-01-26 00:53:00,
2013-01-25 17:58:00,38.3,28.3,29.99,SE,135,1.1,1.1,67,0.00,,,0.00,WUHU216HW,2013-01-26 00:58:00,
2013-01-25 18:03:00,38.2,28.2,29.99,ESE,113,1.1,1.3,67,0.00,,,0.00,WUHU216HW,2013-01-26 01:03:00,
2013-01-25 18:08:00,37.8,28.2,29.99,East,90,2.0,2.0,68,0.00,,,0.00,WUHU216HW,2013-01-26 01:08:00,
2013-01-25 18:13:00,37.8,28.5,29.99,East,90,1.8,2.2,69,0.00,,,0.00,WUHU216HW,2013-01-26 01:13:00,
2013-01-25 18:18:00,37.8,29.0,29.98,ENE,68,3.4,3.4,70,0.00,,,0.00,WUHU216HW,2013-01-26 01:18:00,
2013-01-25 18:23:00,37.4,29.0,29.98,ENE,68,1.6,4.3,71,0.00,,,0.00,WUHU216HW,2013-01-26 01:23:00,
2013-01-25 18:28:00,37.4,29.0,29.98,ESE,113,1.8,4.3,71,0.00,,,0.00,WUHU216HW,2013-01-26 01:28:00,
2013-01-25 18:33:00,37.4,29.0,29.98,ESE,113,0.7,2.7,71,0.00,,,0.00,WUHU216HW,2013-01-26 01:33:00,
2013-01-25 18:38:00,37.4,29.3,29.98,WNW,293,0.4,4.3,72,0.00,,,0.00,WUHU216HW,2013-01-26 01:38:00,
2013-01-25 18:44:00,37.4,29.3,29.98,West,270,0.2,4.3,72,0.00,,,0.00,WUHU216HW,2013-01-26 01:44:00,
2013-01-25 18:49:00,37.1,28.9,29.98,NW,315,0.0,1.1,72,0.00,,,0.00,WUHU216HW,2013-01-26 01:49:00,
2013-01-25 18:54:00,36.9,29.3,29.98,North,0,0.4,1.6,74,0.00,,,0.00,WUHU216HW,2013-01-26 01:54:00,
2013-01-25 18:59:00,36.5,29.3,29.98,NNE,23,1.1,1.8,75,0.00,,,0.00,WUHU216HW,2013-01-26 01:59:00,
2013-01-25 19:04:00,36.4,28.5,29.98,NNE,23,0.9,1.8,73,0.00,,,0.00,WUHU216HW,2013-01-26 02:04:00,
2013-01-25 19:09:00,36.4,28.5,29.98,NE,45,1.1,1.6,73,0.00,,,0.00,WUHU216HW,2013-01-26 02:09:00,
2013-01-25 19:14:00,36.7,29.5,29.97,NW,315,3.6,3.6,75,0.00,,,0.00,WUHU216HW,2013-01-26 02:14:00,
2013-01-25 19:19:00,36.9,30.1,29.97,NNE,23,0.7,3.6,76,0.00,,,0.00,WUHU216HW,2013-01-26 02:19:00,
2013-01-25 19:24:00,37.1,29.9,29.97,ENE,68,0.2,2.9,75,0.00,,,0.00,WUHU216HW,2013-01-26 02:24:00,
2013-01-25 19:29:00,37.3,29.7,29.97,ENE,68,0.0,1.1,74,0.00,,,0.00,WUHU216HW,2013-01-26 02:29:00,
2013-01-25 19:35:00,37.3,29.7,29.97,WSW,248,0.4,1.1,74,0.00,,,0.00,WUHU216HW,2013-01-26 02:35:00,
2013-01-25 19:40:00,37.1,29.5,29.97,SE,135,0.2,1.1,74,0.00,,,0.00,WUHU216HW,2013-01-26 02:40:00,
2013-01-25 19:45:00,37.1,29.5,29.97,NE,45,0.9,1.3,74,0.00,,,0.00,WUHU216HW,2013-01-26 02:45:00,
2013-01-25 19:50:00,36.7,29.2,29.97,NE,45,0.0,1.3,74,0.00,,,0.00,WUHU216HW,2013-01-26 02:50:00,
2013-01-25 19:55:00,36.4,28.5,29.97,NE,45,0.7,0.7,73,0.00,,,0.00,WUHU216HW,2013-01-26 02:55:00,
2013-01-25 20:00:00,36.2,28.6,29.97,NE,45,0.9,0.9,74,0.00,,,0.00,WUHU216HW,2013-01-26 03:00:00,
2013-01-25 20:05:00,36.0,28.4,29.96,ENE,68,0.4,1.1,74,0.00,,,0.00,WUHU216HW,2013-01-26 03:05:00,
2013-01-25 20:10:00,35.8,28.6,29.96,ENE,68,0.0,1.1,75,0.00,,,0.00,WUHU216HW,2013-01-26 03:10:00,
2013-01-25 20:15:00,35.6,28.4,29.96,ENE,68,0.0,0.2,75,0.00,,,0.00,WUHU216HW,2013-01-26 03:15:00,
2013-01-25 20:20:00,35.6,28.8,29.96,ENE,68,1.1,1.1,76,0.00,,,0.00,WUHU216HW,2013-01-26 03:20:00,
2013-01-25 20:25:00,35.6,28.8,29.96,ENE,68,0.0,1.1,76,0.00,,,0.00,WUHU216HW,2013-01-26 03:25:00,
2013-01-25 20:30:00,35.6,28.8,29.96,ENE,68,0.7,1.1,76,0.00,,,0.00,WUHU216HW,2013-01-26 03:30:00,
2013-01-25 20:35:00,35.8,29.0,29.97,SW,225,2.0,2.0,76,0.00,,,0.00,WUHU216HW,2013-01-26 03:35:00,
2013-01-25 20:40:00,35.8,29.0,29.97,SSW,203,1.3,2.0,76,0.00,,,0.00,WUHU216HW,2013-01-26 03:40:00,
2013-01-25 20:46:00,35.8,29.0,29.97,SSE,158,0.0,2.0,76,0.00,,,0.00,WUHU216HW,2013-01-26 03:46:00,
2013-01-25 20:51:00,35.6,28.8,29.97,East,90,1.8,1.8,76,0.00,,,0.00,WUHU216HW,2013-01-26 03:51:00,
2013-01-25 20:56:00,35.6,28.8,29.96,North,0,0.9,1.8,76,0.00,,,0.00,WUHU216HW,2013-01-26 03:56:00,
2013-01-25 21:01:00,35.6,29.1,29.96,WSW,248,0.0,1.3,77,0.00,,,0.00,WUHU216HW,2013-01-26 04:01:00,
2013-01-25 21:06:00,35.6,29.1,29.96,North,0,0.0,1.1,77,0.00,,,0.00,WUHU216HW,2013-01-26 04:06:00,
2013-01-25 21:11:00,35.6,29.4,29.96,North,0,1.1,1.1,78,0.00,,,0.00,WUHU216HW,2013-01-26 04:11:00,
2013-01-25 21:16:00,35.8,29.6,29.96,North,0,0.0,1.1,78,0.00,,,0.00,WUHU216HW,2013-01-26 04:16:00,
2013-01-25 21:21:00,36.0,29.8,29.96,WSW,248,0.0,1.8,78,0.00,,,0.00,WUHU216HW,2013-01-26 04:21:00,
2013-01-25 21:26:00,36.0,29.8,29.95,NNE,23,1.1,2.5,78,0.00,,,0.00,WUHU216HW,2013-01-26 04:26:00,
2013-01-25 21:31:00,36.2,30.0,29.95,WSW,248,1.6,2.5,78,0.00,,,0.00,WUHU216HW,2013-01-26 04:31:00,
2013-01-25 21:36:00,36.0,29.8,29.95,NNE,23,2.0,2.0,78,0.00,,,0.00,WUHU216HW,2013-01-26 04:36:00,
2013-01-25 21:41:00,36.0,29.8,29.95,ENE,68,1.1,2.9,78,0.00,,,0.00,WUHU216HW,2013-01-26 04:41:00,
2013-01-25 21:46:00,36.0,29.8,29.95,SSE,158,1.8,2.9,78,0.00,,,0.00,WUHU216HW,2013-01-26 04:46:00,
2013-01-25 21:52:00,36.2,30.0,29.96,WSW,248,1.1,2.2,78,0.00,,,0.00,WUHU216HW,2013-01-26 04:52:00,
2013-01-25 21:57:00,36.4,30.2,29.95,ESE,113,1.8,2.2,78,0.00,,,0.00,WUHU216HW,2013-01-26 04:57:00,
2013-01-25 22:01:00,36.4,30.2,29.95,SW,225,0.0,4.0,78,0.00,,,0.00,WUHU216HW,2013-01-26 05:01:00,
2013-01-25 22:02:00,36.4,30.2,29.95,SW,225,0.0,4.0,78,0.00,,,0.00,WUHU216HW,2013-01-26 05:02:00,
2013-01-25 22:07:00,36.4,30.2,29.95,West,270,1.8,4.0,78,0.00,,,0.00,WUHU216HW,2013-01-26 05:07:00,
2013-01-25 22:12:00,36.0,29.8,29.95,West,270,2.2,2.2,78,0.00,,,0.00,WUHU216HW,2013-01-26 05:12:00,
2013-01-25 22:17:00,35.6,29.7,29.96,NW,315,0.9,2.2,79,0.00,,,0.00,WUHU216HW,2013-01-26 05:17:00,
2013-01-25 22:23:00,35.1,30.1,29.96,NNW,338,0.9,2.2,82,0.00,,,0.00,WUHU216HW,2013-01-26 05:23:00,
2013-01-25 22:28:00,34.9,29.9,29.96,North,0,1.1,2.2,82,0.00,,,0.00,WUHU216HW,2013-01-26 05:28:00,
2013-01-25 22:33:00,34.9,29.6,29.96,NNW,338,2.9,2.9,81,0.00,,,0.00,WUHU216HW,2013-01-26 05:33:00,
2013-01-25 22:38:00,35.1,30.1,29.96,ENE,68,0.9,2.9,82,0.00,,,0.00,WUHU216HW,2013-01-26 05:38:00,
2013-01-25 22:43:00,35.5,30.4,29.96,ENE,68,1.3,2.7,82,0.00,,,0.00,WUHU216HW,2013-01-26 05:43:00,
2013-01-25 22:48:00,35.8,30.5,29.96,ENE,68,0.7,2.5,81,0.00,,,0.00,WUHU216HW,2013-01-26 05:48:00,
2013-01-25 22:53:00,36.0,30.4,29.96,ENE,68,0.0,2.5,80,0.00,,,0.00,WUHU216HW,2013-01-26 05:53:00,
2013-01-25 22:58:00,36.4,30.8,29.97,ESE,113,1.8,1.8,80,0.00,,,0.00,WUHU216HW,2013-01-26 05:58:00,
2013-01-25 23:04:00,36.4,30.8,29.96,East,90,2.5,2.5,80,0.00,,,0.00,WUHU216HW,2013-01-26 06:04:00,
2013-01-25 23:09:00,36.7,31.1,29.95,ESE,113,5.4,5.4,80,0.00,,,0.00,WUHU216HW,2013-01-26 06:09:00,
2013-01-25 23:14:00,37.1,31.5,29.95,East,90,4.0,5.4,80,0.00,,,0.00,WUHU216HW,2013-01-26 06:14:00,
2013-01-25 23:19:00,37.4,31.9,29.95,ENE,68,3.8,5.4,80,0.00,,,0.00,WUHU216HW,2013-01-26 06:19:00,
2013-01-25 23:24:00,37.4,31.5,29.95,East,90,1.8,5.4,79,0.00,,,0.00,WUHU216HW,2013-01-26 06:24:00,
2013-01-25 23:29:00,37.4,31.2,29.95,West,270,2.7,4.5,78,0.00,,,0.00,WUHU216HW,2013-01-26 06:29:00,
2013-01-25 23:34:00,37.1,31.1,29.95,NNW,338,1.8,4.5,79,0.00,,,0.00,WUHU216HW,2013-01-26 06:34:00,
2013-01-25 23:39:00,36.4,31.1,29.95,North,0,3.1,3.4,81,0.00,,,0.00,WUHU216HW,2013-01-26 06:39:00,
2013-01-25 23:45:00,36.4,31.3,29.95,NNW,338,2.5,3.4,82,0.00,,,0.00,WUHU216HW,2013-01-26 06:45:00,
2013-01-25 23:50:00,36.5,31.2,29.95,North,0,1.3,3.4,81,0.00,,,0.00,WUHU216HW,2013-01-26 06:50:00,
2013-01-25 23:55:00,36.7,31.1,29.95,NNE,23,1.1,2.5,80,0.00,,,0.00,WUHU216HW,2013-01-26 06:55:00,